createdAt,value
2018-05-23T00:00:59.176Z,38.50
2018-05-23T00:03:27.610Z,38.40
2018-05-23T00:05:56.099Z,38.40
2018-05-23T00:08:24.359Z,38.40
2018-05-23T00:10:52.583Z,38.40
2018-05-23T00:13:20.922Z,38.40
2018-05-23T00:15:49.651Z,38.40
2018-05-23T00:18:17.891Z,38.40
2018-05-23T00:20:46.265Z,38.50
2018-05-23T00:23:14.502Z,38.40
2018-05-23T00:25:42.745Z,38.50
2018-05-23T00:28:10.963Z,38.40
2018-05-23T00:30:39.195Z,38.40
2018-05-23T00:33:07.511Z,38.40
2018-05-23T00:35:35.906Z,38.40
2018-05-23T00:38:04.238Z,38.40
2018-05-23T00:40:32.645Z,38.50
2018-05-23T00:43:01.165Z,38.40
2018-05-23T00:45:29.422Z,38.40
2018-05-23T00:47:57.639Z,38.50
2018-05-23T00:50:25.874Z,38.40
2018-05-23T00:52:54.086Z,39.00
2018-05-23T00:55:34.102Z,38.50
2018-05-23T00:58:03.103Z,38.50
2018-05-23T01:00:31.479Z,38.50
2018-05-23T01:02:59.721Z,38.40
2018-05-23T01:05:28.127Z,38.40
2018-05-23T01:07:56.343Z,38.50
2018-05-23T01:10:24.685Z,38.50
2018-05-23T01:12:52.898Z,38.40
2018-05-23T01:15:21.338Z,38.50
2018-05-23T01:17:50.298Z,38.50
2018-05-23T01:20:18.534Z,38.50
2018-05-23T01:22:46.882Z,38.50
2018-05-23T01:25:15.120Z,38.40
2018-05-23T01:27:43.333Z,38.50
2018-05-23T01:30:11.570Z,38.50
2018-05-23T01:32:39.913Z,38.50
2018-05-23T01:35:08.147Z,38.50
2018-05-23T01:37:37.134Z,38.50
2018-05-23T01:40:05.535Z,38.50
2018-05-23T01:42:33.815Z,39.00
2018-05-23T01:45:02.221Z,38.40
2018-05-23T01:47:30.434Z,38.50
2018-05-23T01:49:58.670Z,38.40
2018-05-23T01:52:26.885Z,38.40
2018-05-23T01:54:55.127Z,38.50
2018-05-23T01:57:23.566Z,38.50
2018-05-23T01:59:51.903Z,38.40
2018-05-23T02:02:20.331Z,38.50
2018-05-23T02:04:48.575Z,38.50
2018-05-23T02:07:16.785Z,38.50
2018-05-23T02:09:45.110Z,38.50
2018-05-23T02:12:13.535Z,38.40
2018-05-23T02:14:41.799Z,38.50
2018-05-23T02:17:10.010Z,38.40
2018-05-23T02:19:38.232Z,38.50
2018-05-23T02:22:06.470Z,38.50
2018-05-23T02:24:34.682Z,38.50
2018-05-23T02:27:02.919Z,38.50
2018-05-23T02:29:31.130Z,38.50
2018-05-23T02:31:59.376Z,38.40
2018-05-23T02:34:27.583Z,38.40
2018-05-23T02:36:56.010Z,38.40
2018-05-23T02:39:24.227Z,38.40
2018-05-23T02:41:52.467Z,38.40
2018-05-23T02:44:20.687Z,38.40
2018-05-23T02:46:48.926Z,38.40
2018-05-23T02:49:17.142Z,38.40
2018-05-23T02:51:45.380Z,38.40
2018-05-23T02:54:13.713Z,38.30
2018-05-23T02:56:42.194Z,38.40
2018-05-23T02:59:10.479Z,38.40
2018-05-23T03:01:38.882Z,38.40
2018-05-23T03:04:07.094Z,38.40
2018-05-23T03:06:35.327Z,38.40
2018-05-23T03:09:03.542Z,38.40
2018-05-23T03:11:31.783Z,39.00
2018-05-23T03:14:00.227Z,38.40
2018-05-23T03:16:29.226Z,38.30
2018-05-23T03:18:57.443Z,38.30
2018-05-23T03:21:25.682Z,38.40
2018-05-23T03:23:53.899Z,38.40
2018-05-23T03:26:22.129Z,38.40
2018-05-23T03:28:50.366Z,38.30
2018-05-23T03:31:18.879Z,38.30
2018-05-23T03:33:47.118Z,38.30
2018-05-23T03:36:15.360Z,38.30
2018-05-23T03:38:43.576Z,38.40
2018-05-23T03:41:12.087Z,38.40
2018-05-23T03:43:40.462Z,38.40
2018-05-23T03:46:08.743Z,38.40
2018-05-23T03:48:36.959Z,38.40
2018-05-23T03:51:05.195Z,38.40
2018-05-23T03:53:33.410Z,38.30
2018-05-23T03:56:01.652Z,38.30
2018-05-23T03:58:29.976Z,38.30
2018-05-23T04:01:09.921Z,38.40
2018-05-23T04:03:49.993Z,38.40
2018-05-23T04:09:21.386Z,38.30
2018-05-23T04:11:49.761Z,38.40
2018-05-23T04:14:17.989Z,38.40
2018-05-23T04:16:46.522Z,38.30
2018-05-23T04:19:14.763Z,38.40
2018-05-23T04:21:42.980Z,38.30
2018-05-23T04:24:11.218Z,38.30
2018-05-23T04:26:39.601Z,38.40
2018-05-23T04:29:07.843Z,38.40
2018-05-23T04:31:36.059Z,38.40
2018-05-23T04:34:04.293Z,38.30
2018-05-23T04:36:32.509Z,38.30
2018-05-23T04:39:00.938Z,38.30
2018-05-23T04:41:29.250Z,38.30
2018-05-23T04:43:57.491Z,38.30
2018-05-23T04:46:25.706Z,38.30
2018-05-23T04:48:54.859Z,38.30
2018-05-23T04:51:23.206Z,38.30
2018-05-23T04:53:51.581Z,38.30
2018-05-23T04:56:19.809Z,38.30
2018-05-23T04:58:48.235Z,38.30
2018-05-23T05:01:16.459Z,38.30
2018-05-23T05:03:44.796Z,38.30
2018-05-23T05:06:13.015Z,38.30
2018-05-23T05:08:41.251Z,38.30
2018-05-23T05:11:09.466Z,38.30
2018-05-23T05:13:38.036Z,38.30
2018-05-23T05:16:06.351Z,38.30
2018-05-23T05:18:34.650Z,38.30
2018-05-23T05:21:03.130Z,38.20
2018-05-23T05:23:31.370Z,38.30
2018-05-23T05:25:59.586Z,38.30
2018-05-23T05:28:27.831Z,38.20
2018-05-23T05:30:56.216Z,38.20
2018-05-23T05:33:24.559Z,38.20
2018-05-23T05:35:53.102Z,38.20
2018-05-23T05:38:21.342Z,38.20
2018-05-23T05:40:49.718Z,38.30
2018-05-23T05:43:17.963Z,38.20
2018-05-23T05:45:46.206Z,38.30
2018-05-23T05:48:14.449Z,38.20
2018-05-23T05:50:42.649Z,38.20
2018-05-23T05:53:11.027Z,37.60
2018-05-23T05:55:39.237Z,36.20
2018-05-23T05:58:07.474Z,35.30
2018-05-23T06:00:35.719Z,35.00
2018-05-23T06:03:03.934Z,34.90
2018-05-23T06:05:32.234Z,35.10
2018-05-23T06:08:00.446Z,35.20
2018-05-23T06:10:28.786Z,35.30
2018-05-23T06:12:57.007Z,35.60
2018-05-23T06:15:25.313Z,35.50
2018-05-23T06:17:53.556Z,35.30
2018-05-23T06:20:22.730Z,35.40
2018-05-23T06:22:51.030Z,35.00
2018-05-23T06:25:20.044Z,34.70
2018-05-23T06:27:52.809Z,34.70
2018-05-23T06:30:23.776Z,35.10
2018-05-23T06:35:25.799Z,34.60
2018-05-23T06:37:54.082Z,34.70
2018-05-23T06:40:22.271Z,34.60
2018-05-23T06:42:50.477Z,34.30
2018-05-23T06:45:18.874Z,34.40
2018-05-23T06:47:47.336Z,34.60
2018-05-23T06:50:15.730Z,34.90
2018-05-23T06:52:43.954Z,34.90
2018-05-23T06:55:12.191Z,34.90
2018-05-23T06:57:40.414Z,34.80
2018-05-23T07:00:08.831Z,34.50
2018-05-23T07:02:37.586Z,34.30
2018-05-23T07:05:05.863Z,34.20
2018-05-23T07:07:34.069Z,34.80
2018-05-23T07:10:02.302Z,34.20
2018-05-23T07:12:30.683Z,34.80
2018-05-23T07:14:59.503Z,34.30
2018-05-23T07:17:27.718Z,34.70
2018-05-23T07:19:56.150Z,34.40
2018-05-23T07:22:24.370Z,34.50
2018-05-23T07:24:52.611Z,34.50
2018-05-23T07:27:20.832Z,34.40
2018-05-23T07:29:49.067Z,34.50
2018-05-23T07:32:17.288Z,34.90
2018-05-23T07:34:45.527Z,34.40
2018-05-23T07:37:13.745Z,34.20
2018-05-23T07:39:41.979Z,34.60
2018-05-23T07:42:10.195Z,34.70
2018-05-23T07:44:38.434Z,34.40
2018-05-23T07:47:06.756Z,34.10
2018-05-23T07:49:34.990Z,34.20
2018-05-23T07:52:03.211Z,34.20
2018-05-23T07:54:31.562Z,34.40
2018-05-23T07:57:00.600Z,34.40
2018-05-23T07:59:29.014Z,34.50
2018-05-23T08:01:57.331Z,34.50
2018-05-23T08:04:25.560Z,34.50
2018-05-23T08:06:53.837Z,34.80
2018-05-23T08:09:22.276Z,34.70
2018-05-23T08:11:51.277Z,34.40
2018-05-23T08:14:19.496Z,34.40
2018-05-23T08:16:47.733Z,34.20
2018-05-23T08:19:15.974Z,34.30
2018-05-23T08:21:44.219Z,34.80
2018-05-23T08:24:12.434Z,34.50
2018-05-23T08:26:40.674Z,34.20
2018-05-23T08:29:08.891Z,34.70
2018-05-23T08:31:37.391Z,33.90
2018-05-23T08:34:05.751Z,33.80
2018-05-23T08:36:34.763Z,33.90
2018-05-23T08:39:02.983Z,33.90
2018-05-23T08:41:31.230Z,34.10
2018-05-23T08:44:00.194Z,33.70
2018-05-23T08:46:28.438Z,33.60
2018-05-23T08:48:56.849Z,33.60
2018-05-23T08:51:25.099Z,33.50
2018-05-23T08:53:53.323Z,33.30
2018-05-23T08:56:21.562Z,33.10
2018-05-23T08:58:49.793Z,33.00
2018-05-23T09:01:18.037Z,33.00
2018-05-23T09:03:46.255Z,32.70
2018-05-23T09:06:14.567Z,32.50
2018-05-23T09:08:42.923Z,32.90
2018-05-23T09:11:11.356Z,32.50
2018-05-23T09:13:39.575Z,32.90
2018-05-23T09:16:07.811Z,32.60
2018-05-23T09:18:36.254Z,32.50
2018-05-23T09:21:04.498Z,32.50
2018-05-23T09:23:36.809Z,32.50
2018-05-23T09:26:05.286Z,32.50
2018-05-23T09:28:33.501Z,32.10
2018-05-23T09:31:02.107Z,32.30
2018-05-23T09:33:30.395Z,32.40
2018-05-23T09:35:58.631Z,32.30
2018-05-23T09:38:27.564Z,32.70
2018-05-23T09:40:56.584Z,32.80
2018-05-23T09:43:24.804Z,32.80
2018-05-23T09:45:53.036Z,33.20
2018-05-23T09:48:21.403Z,32.90
2018-05-23T09:50:49.672Z,33.30
2018-05-23T09:53:17.919Z,33.20
2018-05-23T09:55:46.239Z,32.70
2018-05-23T09:58:14.538Z,32.70
2018-05-23T10:00:42.899Z,32.50
2018-05-23T10:03:11.130Z,32.40
2018-05-23T10:05:40.136Z,31.40
2018-05-23T10:08:08.374Z,31.40
2018-05-23T10:10:36.590Z,31.00
2018-05-23T10:13:04.835Z,31.00
2018-05-23T10:15:33.050Z,31.10
2018-05-23T10:18:02.247Z,31.20
2018-05-23T10:20:30.697Z,30.80
2018-05-23T10:22:59.192Z,31.00
2018-05-23T10:25:27.960Z,31.40
2018-05-23T10:27:56.853Z,31.30
2018-05-23T10:30:25.038Z,31.50
2018-05-23T10:32:54.146Z,31.10
2018-05-23T10:35:23.146Z,31.10
2018-05-23T10:37:57.144Z,31.20
2018-05-23T10:40:25.706Z,31.40
2018-05-23T10:42:53.921Z,31.10
2018-05-23T10:45:22.157Z,30.90
2018-05-23T10:47:50.371Z,30.90
2018-05-23T10:50:23.143Z,31.30
2018-05-23T10:52:51.457Z,31.60
2018-05-23T10:55:19.703Z,31.00
2018-05-23T10:57:48.010Z,30.90
2018-05-23T11:00:16.518Z,30.30
2018-05-23T11:02:44.738Z,30.20
2018-05-23T11:05:12.992Z,29.70
2018-05-23T11:07:41.216Z,29.30
2018-05-23T11:10:09.463Z,29.30
2018-05-23T11:12:37.682Z,29.40
2018-05-23T11:15:05.952Z,29.80
2018-05-23T11:17:34.383Z,30.00
2018-05-23T11:20:03.337Z,30.40
2018-05-23T11:22:31.554Z,30.20
2018-05-23T11:24:59.807Z,30.20
2018-05-23T11:27:28.795Z,30.10
2018-05-23T11:29:57.806Z,30.30
2018-05-23T11:32:26.027Z,30.30
2018-05-23T11:34:54.453Z,30.30
2018-05-23T11:37:22.670Z,30.40
2018-05-23T11:39:50.910Z,30.50
2018-05-23T11:42:19.127Z,30.70
2018-05-23T11:44:47.350Z,30.80
2018-05-23T11:47:15.718Z,31.20
2018-05-23T11:49:44.071Z,30.80
2018-05-23T11:52:12.333Z,30.90
2018-05-23T11:54:40.560Z,30.80
2018-05-23T11:57:08.703Z,30.30
2018-05-23T11:59:36.909Z,30.30
2018-05-23T12:02:05.158Z,30.20
2018-05-23T12:04:33.364Z,30.40
2018-05-23T12:07:02.768Z,30.70
2018-05-23T12:09:31.006Z,30.40
2018-05-23T12:11:59.406Z,30.40
2018-05-23T12:14:27.893Z,30.00
2018-05-23T12:16:56.270Z,30.00
2018-05-23T12:19:24.655Z,29.90
2018-05-23T12:21:52.923Z,29.80
2018-05-23T12:24:21.138Z,29.40
2018-05-23T12:26:49.374Z,29.10
2018-05-23T12:29:17.770Z,29.00
2018-05-23T12:31:46.138Z,28.90
2018-05-23T12:34:14.513Z,29.00
2018-05-23T12:36:42.749Z,29.30
2018-05-23T12:39:10.966Z,28.80
2018-05-23T12:41:39.322Z,28.40
2018-05-23T12:44:07.973Z,28.40
2018-05-23T12:46:36.498Z,28.50
2018-05-23T12:49:04.774Z,28.30
2018-05-23T12:51:33.182Z,28.20
2018-05-23T12:54:01.501Z,28.10
2018-05-23T12:56:29.931Z,28.20
2018-05-23T12:58:58.230Z,28.00
2018-05-23T13:01:26.633Z,28.00
2018-05-23T13:03:55.153Z,28.00
2018-05-23T13:06:23.358Z,27.90
2018-05-23T13:08:51.691Z,27.70
2018-05-23T13:11:19.928Z,27.50
2018-05-23T13:13:48.284Z,27.30
2018-05-23T13:16:16.494Z,27.40
2018-05-23T13:18:44.735Z,27.30
2018-05-23T13:21:13.041Z,27.60
2018-05-23T13:23:41.259Z,27.40
2018-05-23T13:26:09.530Z,27.00
2018-05-23T13:28:37.894Z,27.10
2018-05-23T13:31:06.392Z,26.90
2018-05-23T13:33:34.613Z,27.00
2018-05-23T13:36:03.530Z,27.00
2018-05-23T13:38:31.774Z,27.10
2018-05-23T13:41:00.202Z,27.10
2018-05-23T13:43:28.578Z,26.90
2018-05-23T13:45:56.894Z,26.80
2018-05-23T13:48:25.138Z,26.90
2018-05-23T13:50:53.355Z,26.90
2018-05-23T13:53:21.718Z,26.60
2018-05-23T13:55:50.154Z,27.00
2018-05-23T13:58:19.164Z,26.60
2018-05-23T14:00:47.463Z,26.50
2018-05-23T14:03:15.785Z,27.10
2018-05-23T14:05:44.613Z,26.50
2018-05-23T14:08:16.409Z,26.60
2018-05-23T14:10:45.506Z,26.60
2018-05-23T14:13:13.785Z,26.70
2018-05-23T14:15:42.184Z,26.90
2018-05-23T14:18:10.430Z,26.70
2018-05-23T14:20:38.661Z,26.50
2018-05-23T14:23:06.869Z,26.30
2018-05-23T14:25:35.103Z,26.30
2018-05-23T14:28:03.881Z,26.50
2018-05-23T14:30:32.872Z,26.30
2018-05-23T14:33:01.874Z,26.10
2018-05-23T14:35:30.861Z,26.00
2018-05-23T14:38:12.762Z,25.90
2018-05-23T14:40:41.964Z,25.90
2018-05-23T14:43:10.334Z,25.90
2018-05-23T14:45:41.754Z,26.60
2018-05-23T14:48:10.241Z,26.80
2018-05-23T14:50:38.512Z,27.10
2018-05-23T14:53:06.702Z,26.90
2018-05-23T14:55:35.260Z,27.00
2018-05-23T14:58:04.290Z,26.90
2018-05-23T15:00:32.735Z,27.20
2018-05-23T15:03:00.922Z,27.40
2018-05-23T15:05:29.736Z,27.10
2018-05-23T15:07:58.090Z,27.50
2018-05-23T15:10:27.107Z,27.60
2018-05-23T15:12:55.470Z,27.60
2018-05-23T15:15:23.714Z,27.60
2018-05-23T15:17:52.246Z,27.80
2018-05-23T15:20:20.525Z,27.60
2018-05-23T15:22:48.998Z,28.40
2018-05-23T15:25:21.329Z,27.90
2018-05-23T15:27:49.613Z,28.00
2018-05-23T15:30:18.404Z,27.80
2018-05-23T15:32:50.337Z,27.90
2018-05-23T15:35:18.770Z,27.90
2018-05-23T15:37:46.992Z,27.80
2018-05-23T15:40:15.314Z,27.70
2018-05-23T15:42:43.693Z,27.80
2018-05-23T15:45:12.071Z,27.80
2018-05-23T15:47:40.339Z,28.30
2018-05-23T15:50:08.563Z,28.60
2018-05-23T15:52:36.807Z,27.90
2018-05-23T15:55:05.795Z,28.20
2018-05-23T15:57:34.190Z,26.80
2018-05-23T16:00:02.517Z,27.80
2018-05-23T16:02:30.839Z,27.80
2018-05-23T16:04:59.055Z,27.80
2018-05-23T16:07:27.363Z,28.00
2018-05-23T16:09:55.585Z,27.80
2018-05-23T16:12:23.923Z,28.00
2018-05-23T16:14:52.234Z,28.00
2018-05-23T16:17:20.418Z,28.00
2018-05-23T16:19:48.750Z,28.40
2018-05-23T16:22:16.990Z,28.00
2018-05-23T16:24:45.282Z,27.80
2018-05-23T16:27:13.570Z,28.30
2018-05-23T16:29:41.962Z,27.90
2018-05-23T16:32:10.222Z,28.30
2018-05-23T16:34:38.612Z,28.40
2018-05-23T16:37:06.920Z,27.90
2018-05-23T16:39:35.154Z,28.10
2018-05-23T16:42:03.534Z,28.10
2018-05-23T16:44:32.630Z,28.10
2018-05-23T16:47:00.806Z,28.20
2018-05-23T16:49:29.286Z,28.30
2018-05-23T16:51:57.575Z,28.40
2018-05-23T16:54:26.043Z,28.40
2018-05-23T16:56:54.314Z,28.40
2018-05-23T16:59:22.556Z,28.40
2018-05-23T17:01:50.870Z,28.40
2018-05-23T17:04:19.118Z,28.50
2018-05-23T17:06:47.627Z,28.50
2018-05-23T17:09:16.010Z,28.50
2018-05-23T17:11:44.278Z,28.60
2018-05-23T17:14:12.645Z,28.50
2018-05-23T17:16:40.941Z,28.50
2018-05-23T17:19:09.190Z,28.60
2018-05-23T17:21:37.491Z,28.70
2018-05-23T17:24:06.483Z,28.80
2018-05-23T17:26:34.954Z,28.60
2018-05-23T17:29:03.231Z,28.70
2018-05-23T17:31:31.719Z,28.80
2018-05-23T17:34:00.099Z,28.80
2018-05-23T17:36:28.314Z,28.90
2018-05-23T17:38:56.742Z,28.90
2018-05-23T17:41:25.312Z,28.90
2018-05-23T17:43:53.482Z,29.00
2018-05-23T17:46:21.855Z,29.00
2018-05-23T17:48:50.071Z,29.00
2018-05-23T17:51:18.434Z,29.10
2018-05-23T17:53:46.827Z,29.10
2018-05-23T17:56:15.119Z,29.20
2018-05-23T17:58:43.342Z,29.20
2018-05-23T18:01:11.581Z,29.30
2018-05-23T18:03:39.794Z,29.30
2018-05-23T18:06:08.119Z,29.30
2018-05-23T18:08:36.271Z,29.30
2018-05-23T18:11:04.552Z,29.30
2018-05-23T18:13:33.229Z,29.40
2018-05-23T18:16:01.545Z,29.40
2018-05-23T18:18:29.757Z,29.40
2018-05-23T18:20:58.060Z,29.50
2018-05-23T18:23:26.291Z,29.50
2018-05-23T18:25:54.712Z,29.60
2018-05-23T18:28:23.169Z,29.60
2018-05-23T18:30:51.333Z,29.60
2018-05-23T18:33:19.558Z,29.70
2018-05-23T18:35:47.799Z,29.70
2018-05-23T18:38:16.018Z,29.80
2018-05-23T18:40:44.267Z,29.80
2018-05-23T18:43:12.479Z,29.80
2018-05-23T18:45:40.811Z,29.90
2018-05-23T18:48:09.026Z,29.90
2018-05-23T18:50:37.237Z,30.00
2018-05-23T18:53:05.476Z,30.00
2018-05-23T18:55:33.691Z,30.00
2018-05-23T18:58:02.103Z,30.00
2018-05-23T19:00:30.578Z,30.00
2018-05-23T19:02:58.878Z,30.00
2018-05-23T19:05:27.384Z,30.00
2018-05-23T19:07:55.709Z,30.00
2018-05-23T19:10:23.958Z,30.00
2018-05-23T19:12:52.198Z,30.00
2018-05-23T19:15:20.508Z,30.00
2018-05-23T19:17:48.848Z,30.10
2018-05-23T19:20:17.285Z,30.00
2018-05-23T19:22:45.593Z,30.10
2018-05-23T19:25:13.814Z,30.10
2018-05-23T19:27:42.058Z,30.20
2018-05-23T19:30:10.501Z,30.20
2018-05-23T19:32:38.884Z,30.20
2018-05-23T19:35:07.931Z,30.30
2018-05-23T19:37:36.170Z,30.30
2018-05-23T19:40:04.534Z,30.30
2018-05-23T19:42:32.904Z,30.30
2018-05-23T19:45:01.123Z,30.30
2018-05-23T19:47:29.426Z,30.30
2018-05-23T19:49:57.578Z,30.40
2018-05-23T19:52:25.853Z,30.40
2018-05-23T19:54:54.290Z,30.40
2018-05-23T19:57:22.539Z,30.40
2018-05-23T19:59:50.753Z,30.40
2018-05-23T20:02:18.973Z,30.50
2018-05-23T20:04:47.383Z,30.50
2018-05-23T20:07:15.883Z,30.60
2018-05-23T20:09:44.173Z,30.60
2018-05-23T20:12:12.639Z,30.60
2018-05-23T20:14:40.934Z,30.70
2018-05-23T20:17:09.163Z,30.60
2018-05-23T20:19:37.401Z,30.70
2018-05-23T20:22:05.742Z,30.80
2018-05-23T20:24:34.719Z,30.80
2018-05-23T20:27:02.930Z,30.80
2018-05-23T20:29:31.170Z,30.80
2018-05-23T20:31:59.391Z,30.80
2018-05-23T20:34:27.625Z,30.80
2018-05-23T20:36:56.111Z,30.90
2018-05-23T20:39:24.374Z,30.90
2018-05-23T20:41:52.589Z,30.90
2018-05-23T20:44:20.826Z,31.00
2018-05-23T20:46:49.184Z,31.00
2018-05-23T20:49:17.423Z,31.00
2018-05-23T20:51:45.671Z,31.00
2018-05-23T20:54:14.143Z,31.10
2018-05-23T20:56:42.390Z,31.10
2018-05-23T20:59:10.730Z,31.00
2018-05-23T21:01:38.947Z,31.10
2018-05-23T21:04:08.475Z,31.20
2018-05-23T21:06:36.847Z,31.10
2018-05-23T21:09:05.871Z,31.20
2018-05-23T21:11:34.922Z,31.10
2018-05-23T21:14:03.318Z,31.10
2018-05-23T21:16:31.567Z,31.20
2018-05-23T21:18:59.807Z,31.30
2018-05-23T21:21:28.026Z,31.30
2018-05-23T21:23:56.371Z,31.30
2018-05-23T21:26:24.595Z,31.30
2018-05-23T21:28:53.791Z,31.50
2018-05-23T21:31:22.011Z,31.40
2018-05-23T21:33:50.346Z,31.40
2018-05-23T21:36:18.562Z,31.40
2018-05-23T21:38:46.793Z,31.40
2018-05-23T21:41:15.795Z,31.50
2018-05-23T21:43:44.006Z,31.40
2018-05-23T21:46:12.242Z,31.40
2018-05-23T21:48:40.485Z,31.40
2018-05-23T21:51:09.529Z,31.50
2018-05-23T21:53:37.746Z,31.40
2018-05-23T21:56:06.070Z,31.50
2018-05-23T21:58:34.308Z,31.50
2018-05-23T22:01:02.709Z,32.10
2018-05-23T22:03:30.921Z,31.50
2018-05-23T22:05:59.231Z,31.60
2018-05-23T22:08:27.551Z,31.50
2018-05-23T22:10:55.791Z,31.60
2018-05-23T22:13:24.100Z,31.60
2018-05-23T22:15:52.366Z,31.60
2018-05-23T22:18:20.589Z,31.70
2018-05-23T22:20:48.822Z,31.60
2018-05-23T22:23:17.042Z,31.60
2018-05-23T22:25:45.379Z,31.60
2018-05-23T22:28:13.598Z,31.80
2018-05-23T22:30:41.900Z,31.70
2018-05-23T22:33:10.043Z,31.70
2018-05-23T22:35:38.578Z,31.70
2018-05-23T22:38:06.866Z,31.70
2018-05-23T22:40:35.955Z,31.70
2018-05-23T22:43:04.231Z,31.80
2018-05-23T22:45:32.602Z,31.80
2018-05-23T22:48:01.090Z,31.80
2018-05-23T22:50:29.746Z,31.80
2018-05-23T22:52:58.035Z,31.80
2018-05-23T22:55:26.534Z,31.70
2018-05-23T22:57:54.818Z,31.90
2018-05-23T23:00:23.053Z,31.90
2018-05-23T23:02:51.031Z,31.90
2018-05-23T23:05:20.034Z,31.90
2018-05-23T23:07:49.010Z,31.90
2018-05-23T23:10:17.414Z,31.90
2018-05-23T23:12:45.633Z,31.90
2018-05-23T23:15:14.130Z,31.90
2018-05-23T23:17:42.423Z,31.90
2018-05-23T23:20:10.823Z,32.00
2018-05-23T23:22:39.110Z,31.90
2018-05-23T23:25:07.346Z,32.00
2018-05-23T23:27:36.345Z,32.00
2018-05-23T23:30:05.358Z,32.10
2018-05-23T23:32:34.455Z,32.10
2018-05-23T23:35:02.674Z,32.00
2018-05-23T23:37:31.038Z,32.10
2018-05-23T23:39:59.358Z,32.10
2018-05-23T23:42:27.599Z,32.00
2018-05-23T23:44:55.958Z,32.10
2018-05-23T23:47:24.246Z,32.10
2018-05-23T23:49:52.694Z,32.10
2018-05-23T23:52:20.940Z,32.10
2018-05-23T23:54:49.322Z,32.20
2018-05-23T23:57:17.734Z,32.10
2018-05-23T23:59:45.947Z,32.10
